sensor_id;sensor_type;location;lat;lon;timestamp;pressure;altitude;pressure_sealevel;temperature;humidity
27202;BME280;14717;46.924;15.474;2022-11-14T00:01:56;98796.94;;;8.65;100.00
27202;BME280;14717;46.924;15.474;2022-11-14T00:04:21;98786.38;;;8.57;100.00
27202;BME280;14717;46.924;15.474;2022-11-14T00:06:46;98788.75;;;8.49;100.00
27202;BME280;14717;46.924;15.474;2022-11-14T00:09:12;98786.06;;;8.54;100.00
27202;BME280;14717;46.924;15.474;2022-11-14T00:11:37;98773.78;;;8.61;100.00
27202;BME280;14717;46.924;15.474;2022-11-14T00:14:03;98774.03;;;8.60;100.00
27202;BME280;14717;46.924;15.474;2022-11-14T00:16:28;98772.88;;;8.56;100.00
27202;BME280;14717;46.924;15.474;2022-11-14T00:18:53;98780.38;;;8.60;100.00
27202;BME280;14717;46.924;15.474;2022-11-14T00:21:19;98781.84;;;8.68;100.00
27202;BME280;14717;46.924;15.474;2022-11-14T00:23:44;98786.81;;;8.71;100.00
27202;BME280;14717;46.924;15.474;2022-11-14T00:26:09;98786.00;;;8.70;100.00
27202;BME280;14717;46.924;15.474;2022-11-14T00:28:35;98778.44;;;8.61;100.00
27202;BME280;14717;46.924;15.474;2022-11-14T00:31:00;98769.69;;;8.43;100.00
27202;BME280;14717;46.924;15.474;2022-11-14T00:33:25;98770.97;;;8.35;100.00
27202;BME280;14717;46.924;15.474;2022-11-14T00:35:55;98777.75;;;8.49;100.00
27202;BME280;14717;46.924;15.474;2022-11-14T00:38:21;98772.09;;;8.60;100.00
27202;BME280;14717;46.924;15.474;2022-11-14T00:40:47;98773.09;;;8.49;100.00
27202;BME280;14717;46.924;15.474;2022-11-14T00:43:12;98775.44;;;8.41;100.00
27202;BME280;14717;46.924;15.474;2022-11-14T00:45:38;98772.25;;;8.49;100.00
27202;BME280;14717;46.924;15.474;2022-11-14T00:48:03;98775.69;;;8.61;100.00
27202;BME280;14717;46.924;15.474;2022-11-14T00:50:29;98783.50;;;8.69;100.00
27202;BME280;14717;46.924;15.474;2022-11-14T00:52:54;98774.97;;;8.70;100.00
27202;BME280;14717;46.924;15.474;2022-11-14T00:55:19;98777.66;;;8.65;100.00
27202;BME280;14717;46.924;15.474;2022-11-14T00:57:45;98787.03;;;8.64;100.00
27202;BME280;14717;46.924;15.474;2022-11-14T01:00:12;98784.28;;;8.64;100.00
27202;BME280;14717;46.924;15.474;2022-11-14T01:02:38;98778.72;;;8.59;100.00
27202;BME280;14717;46.924;15.474;2022-11-14T01:05:03;98793.25;;;8.55;100.00
27202;BME280;14717;46.924;15.474;2022-11-14T01:07:29;98784.22;;;8.59;100.00
27202;BME280;14717;46.924;15.474;2022-11-14T01:09:54;98787.03;;;8.64;100.00
27202;BME280;14717;46.924;15.474;2022-11-14T01:12:20;98792.81;;;8.63;100.00
27202;BME280;14717;46.924;15.474;2022-11-14T01:14:46;98783.88;;;8.56;100.00
27202;BME280;14717;46.924;15.474;2022-11-14T01:17:11;98788.88;;;8.59;100.00
27202;BME280;14717;46.924;15.474;2022-11-14T01:19:37;98785.03;;;8.60;100.00
27202;BME280;14717;46.924;15.474;2022-11-14T01:22:02;98772.34;;;8.59;100.00
27202;BME280;14717;46.924;15.474;2022-11-14T01:24:28;98768.28;;;8.61;100.00
27202;BME280;14717;46.924;15.474;2022-11-14T01:26:54;98759.75;;;8.63;100.00
27202;BME280;14717;46.924;15.474;2022-11-14T01:29:20;98763.22;;;8.53;100.00
27202;BME280;14717;46.924;15.474;2022-11-14T01:31:45;98760.16;;;8.50;100.00
27202;BME280;14717;46.924;15.474;2022-11-14T01:34:11;98753.22;;;8.48;100.00
27202;BME280;14717;46.924;15.474;2022-11-14T01:36:36;98752.50;;;8.57;100.00
27202;BME280;14717;46.924;15.474;2022-11-14T01:39:02;98761.41;;;8.64;100.00
27202;BME280;14717;46.924;15.474;2022-11-14T01:41:27;98762.56;;;8.68;100.00
27202;BME280;14717;46.924;15.474;2022-11-14T01:43:52;98759.50;;;8.64;100.00
27202;BME280;14717;46.924;15.474;2022-11-14T01:46:22;98742.97;;;8.64;100.00
27202;BME280;14717;46.924;15.474;2022-11-14T01:48:59;98739.94;;;8.66;100.00
27202;BME280;14717;46.924;15.474;2022-11-14T01:51:33;98736.31;;;8.60;100.00
27202;BME280;14717;46.924;15.474;2022-11-14T01:54:05;98741.25;;;8.58;100.00
27202;BME280;14717;46.924;15.474;2022-11-14T01:56:37;98743.69;;;8.55;100.00
27202;BME280;14717;46.924;15.474;2022-11-14T01:59:10;98742.25;;;8.52;100.00
27202;BME280;14717;46.924;15.474;2022-11-14T02:01:41;98737.88;;;8.51;100.00
27202;BME280;14717;46.924;15.474;2022-11-14T02:04:09;98734.53;;;8.49;100.00
27202;BME280;14717;46.924;15.474;2022-11-14T02:06:35;98724.25;;;8.40;100.00
27202;BME280;14717;46.924;15.474;2022-11-14T02:09:04;98716.75;;;8.36;100.00
27202;BME280;14717;46.924;15.474;2022-11-14T02:11:32;98701.91;;;8.37;100.00
27202;BME280;14717;46.924;15.474;2022-11-14T02:13:59;98708.44;;;8.31;100.00
27202;BME280;14717;46.924;15.474;2022-11-14T02:16:26;98720.59;;;8.35;100.00
27202;BME280;14717;46.924;15.474;2022-11-14T02:18:51;98718.72;;;8.40;100.00
27202;BME280;14717;46.924;15.474;2022-11-14T02:21:17;98718.72;;;8.40;100.00
27202;BME280;14717;46.924;15.474;2022-11-14T02:23:42;98717.50;;;8.31;100.00
27202;BME280;14717;46.924;15.474;2022-11-14T02:26:08;98714.06;;;8.41;100.00
27202;BME280;14717;46.924;15.474;2022-11-14T02:28:33;98703.03;;;8.41;100.00
27202;BME280;14717;46.924;15.474;2022-11-14T02:30:58;98694.00;;;8.45;100.00
27202;BME280;14717;46.924;15.474;2022-11-14T02:33:24;98700.59;;;8.44;100.00
27202;BME280;14717;46.924;15.474;2022-11-14T02:35:49;98695.09;;;8.44;100.00
27202;BME280;14717;46.924;15.474;2022-11-14T02:38:14;98714.31;;;8.39;100.00
27202;BME280;14717;46.924;15.474;2022-11-14T02:40:40;98699.50;;;8.45;100.00
27202;BME280;14717;46.924;15.474;2022-11-14T02:43:05;98706.16;;;8.49;100.00
27202;BME280;14717;46.924;15.474;2022-11-14T02:45:31;98701.03;;;8.36;100.00
27202;BME280;14717;46.924;15.474;2022-11-14T02:47:57;98694.22;;;8.17;100.00
27202;BME280;14717;46.924;15.474;2022-11-14T02:50:22;98694.19;;;8.12;100.00
27202;BME280;14717;46.924;15.474;2022-11-14T02:52:47;98694.09;;;8.07;100.00
27202;BME280;14717;46.924;15.474;2022-11-14T02:55:13;98703.94;;;8.04;100.00
27202;BME280;14717;46.924;15.474;2022-11-14T02:57:38;98711.03;;;8.00;100.00
27202;BME280;14717;46.924;15.474;2022-11-14T03:00:04;98709.31;;;8.15;100.00
27202;BME280;14717;46.924;15.474;2022-11-14T03:02:30;98691.47;;;8.17;100.00
27202;BME280;14717;46.924;15.474;2022-11-14T03:04:55;98702.03;;;8.25;100.00
27202;BME280;14717;46.924;15.474;2022-11-14T03:07:21;98687.13;;;8.21;100.00
27202;BME280;14717;46.924;15.474;2022-11-14T03:09:46;98691.47;;;8.17;100.00
27202;BME280;14717;46.924;15.474;2022-11-14T03:12:15;98684.41;;;8.26;100.00
27202;BME280;14717;46.924;15.474;2022-11-14T03:14:40;98683.84;;;8.24;100.00
27202;BME280;14717;46.924;15.474;2022-11-14T03:17:05;98674.47;;;8.20;100.00
27202;BME280;14717;46.924;15.474;2022-11-14T03:19:31;98678.66;;;8.28;100.00
27202;BME280;14717;46.924;15.474;2022-11-14T03:21:56;98677.91;;;8.32;100.00
27202;BME280;14717;46.924;15.474;2022-11-14T03:24:21;98671.81;;;8.30;100.00
27202;BME280;14717;46.924;15.474;2022-11-14T03:26:47;98680.09;;;8.30;100.00
27202;BME280;14717;46.924;15.474;2022-11-14T03:29:12;98677.91;;;8.32;100.00
27202;BME280;14717;46.924;15.474;2022-11-14T03:31:37;98677.59;;;8.29;100.00
27202;BME280;14717;46.924;15.474;2022-11-14T03:34:03;98674.41;;;8.15;100.00
27202;BME280;14717;46.924;15.474;2022-11-14T03:36:28;98658.19;;;7.98;100.00
27202;BME280;14717;46.924;15.474;2022-11-14T03:38:53;98659.75;;;7.89;100.00
27202;BME280;14717;46.924;15.474;2022-11-14T03:41:19;98664.25;;;8.00;100.00
27202;BME280;14717;46.924;15.474;2022-11-14T03:43:44;98683.84;;;8.03;100.00
27202;BME280;14717;46.924;15.474;2022-11-14T03:46:09;98682.00;;;8.08;100.00
27202;BME280;14717;46.924;15.474;2022-11-14T03:48:35;98688.16;;;8.15;100.00
27202;BME280;14717;46.924;15.474;2022-11-14T03:51:00;98681.59;;;8.21;100.00
27202;BME280;14717;46.924;15.474;2022-11-14T03:53:25;98674.91;;;8.12;100.00
27202;BME280;14717;46.924;15.474;2022-11-14T03:55:52;98670.28;;;8.18;100.00
27202;BME280;14717;46.924;15.474;2022-11-14T03:58:18;98674.47;;;8.20;100.00
27202;BME280;14717;46.924;15.474;2022-11-14T04:00:43;98679.13;;;8.20;100.00
27202;BME280;14717;46.924;15.474;2022-11-14T04:03:09;98684.09;;;8.23;100.00
27202;BME280;14717;46.924;15.474;2022-11-14T04:05:34;98687.47;;;8.25;100.00
27202;BME280;14717;46.924;15.474;2022-11-14T04:08:00;98681.66;;;8.26;100.00
27202;BME280;14717;46.924;15.474;2022-11-14T04:10:25;98671.25;;;8.28;100.00
27202;BME280;14717;46.924;15.474;2022-11-14T04:12:51;98684.31;;;8.16;100.00
27202;BME280;14717;46.924;15.474;2022-11-14T04:15:18;98676.34;;;8.20;100.00
27202;BME280;14717;46.924;15.474;2022-11-14T04:17:44;98682.22;;;8.23;100.00
27202;BME280;14717;46.924;15.474;2022-11-14T04:20:11;98680.59;;;8.27;100.00
27202;BME280;14717;46.924;15.474;2022-11-14T04:22:36;98687.81;;;8.33;100.00
27202;BME280;14717;46.924;15.474;2022-11-14T04:25:02;98685.69;;;8.40;100.00
27202;BME280;14717;46.924;15.474;2022-11-14T04:27:27;98683.50;;;8.42;100.00
27202;BME280;14717;46.924;15.474;2022-11-14T04:29:53;98675.75;;;8.39;100.00
27202;BME280;14717;46.924;15.474;2022-11-14T04:32:18;98684.41;;;8.26;100.00
27202;BME280;14717;46.924;15.474;2022-11-14T04:34:43;98689.88;;;8.21;100.00
27202;BME280;14717;46.924;15.474;2022-11-14T04:37:09;98683.16;;;8.12;100.00
27202;BME280;14717;46.924;15.474;2022-11-14T04:39:34;98671.50;;;8.05;100.00
27202;BME280;14717;46.924;15.474;2022-11-14T04:42:00;98677.19;;;7.99;100.00
27202;BME280;14717;46.924;15.474;2022-11-14T04:44:25;98670.22;;;7.92;100.00
27202;BME280;14717;46.924;15.474;2022-11-14T04:46:50;98663.88;;;7.91;100.00
27202;BME280;14717;46.924;15.474;2022-11-14T04:49:16;98671.88;;;7.93;100.00
27202;BME280;14717;46.924;15.474;2022-11-14T04:51:41;98677.31;;;8.09;100.00
27202;BME280;14717;46.924;15.474;2022-11-14T04:54:07;98678.28;;;8.19;100.00
27202;BME280;14717;46.924;15.474;2022-11-14T04:56:32;98667.28;;;8.19;100.00
27202;BME280;14717;46.924;15.474;2022-11-14T04:59:00;98669.84;;;8.26;100.00
27202;BME280;14717;46.924;15.474;2022-11-14T05:01:25;98664.13;;;8.32;100.00
27202;BME280;14717;46.924;15.474;2022-11-14T05:03:50;98657.00;;;8.36;100.00
27202;BME280;14717;46.924;15.474;2022-11-14T05:06:16;98654.19;;;8.31;100.00
27202;BME280;14717;46.924;15.474;2022-11-14T05:08:41;98652.88;;;8.34;100.00
27202;BME280;14717;46.924;15.474;2022-11-14T05:11:12;98658.69;;;8.37;100.00
27202;BME280;14717;46.924;15.474;2022-11-14T05:13:38;98666.16;;;8.42;100.00
27202;BME280;14717;46.924;15.474;2022-11-14T05:16:04;98670.31;;;8.44;100.00
27202;BME280;14717;46.924;15.474;2022-11-14T05:18:29;98671.16;;;8.45;100.00
27202;BME280;14717;46.924;15.474;2022-11-14T05:20:57;98666.47;;;8.45;100.00
27202;BME280;14717;46.924;15.474;2022-11-14T05:23:23;98659.81;;;8.41;100.00
27202;BME280;14717;46.924;15.474;2022-11-14T05:26:03;98663.47;;;8.47;100.00
27202;BME280;14717;46.924;15.474;2022-11-14T05:28:31;98660.47;;;8.48;100.00
27202;BME280;14717;46.924;15.474;2022-11-14T05:31:08;98663.22;;;8.48;100.00
27202;BME280;14717;46.924;15.474;2022-11-14T05:33:34;98665.06;;;8.43;100.00
27202;BME280;14717;46.924;15.474;2022-11-14T05:36:07;98664.50;;;8.41;100.00
27202;BME280;14717;46.924;15.474;2022-11-14T05:38:33;98656.50;;;8.39;100.00
27202;BME280;14717;46.924;15.474;2022-11-14T05:40:59;98657.34;;;8.40;100.00
27202;BME280;14717;46.924;15.474;2022-11-14T05:43:24;98664.75;;;8.39;100.00
27202;BME280;14717;46.924;15.474;2022-11-14T05:45:57;98662.50;;;8.36;100.00
27202;BME280;14717;46.924;15.474;2022-11-14T05:48:23;98669.69;;;8.37;100.00
27202;BME280;14717;46.924;15.474;2022-11-14T05:50:53;98681.28;;;8.39;100.00
27202;BME280;14717;46.924;15.474;2022-11-14T05:53:19;98682.56;;;8.32;100.00
27202;BME280;14717;46.924;15.474;2022-11-14T05:55:44;98682.56;;;8.32;100.00
27202;BME280;14717;46.924;15.474;2022-11-14T05:58:09;98688.69;;;8.39;100.00
27202;BME280;14717;46.924;15.474;2022-11-14T06:00:35;98688.44;;;8.40;100.00
27202;BME280;14717;46.924;15.474;2022-11-14T06:03:00;98685.31;;;8.32;100.00
27202;BME280;14717;46.924;15.474;2022-11-14T06:05:26;98690.53;;;8.28;100.00
27202;BME280;14717;46.924;15.474;2022-11-14T06:07:57;98685.78;;;8.24;100.00
27202;BME280;14717;46.924;15.474;2022-11-14T06:10:23;98688.47;;;8.19;100.00
27202;BME280;14717;46.924;15.474;2022-11-14T06:12:49;98688.03;;;8.27;100.00
27202;BME280;14717;46.924;15.474;2022-11-14T06:15:15;98680.69;;;8.37;100.00
27202;BME280;14717;46.924;15.474;2022-11-14T06:17:40;98674.88;;;8.34;100.00
27202;BME280;14717;46.924;15.474;2022-11-14T06:20:06;98678.50;;;8.39;100.00
27202;BME280;14717;46.924;15.474;2022-11-14T06:22:32;98679.69;;;8.43;100.00
27202;BME280;14717;46.924;15.474;2022-11-14T06:24:59;98680.81;;;8.47;100.00
27202;BME280;14717;46.924;15.474;2022-11-14T06:27:24;98676.44;;;8.51;100.00
27202;BME280;14717;46.924;15.474;2022-11-14T06:29:49;98682.28;;;8.54;100.00
27202;BME280;14717;46.924;15.474;2022-11-14T06:32:15;98681.22;;;8.60;100.00
27202;BME280;14717;46.924;15.474;2022-11-14T06:34:40;98673.00;;;8.65;100.00
27202;BME280;14717;46.924;15.474;2022-11-14T06:37:05;98673.25;;;8.64;100.00
27202;BME280;14717;46.924;15.474;2022-11-14T06:39:31;98673.25;;;8.64;100.00
27202;BME280;14717;46.924;15.474;2022-11-14T06:41:56;98676.28;;;8.62;100.00
27202;BME280;14717;46.924;15.474;2022-11-14T06:44:21;98676.03;;;8.64;100.00
27202;BME280;14717;46.924;15.474;2022-11-14T06:46:47;98676.59;;;8.66;100.00
27202;BME280;14717;46.924;15.474;2022-11-14T06:49:12;98672.19;;;8.65;100.00
27202;BME280;14717;46.924;15.474;2022-11-14T06:51:37;98677.44;;;8.66;100.00
27202;BME280;14717;46.924;15.474;2022-11-14T06:54:03;98682.13;;;8.71;100.00
27202;BME280;14717;46.924;15.474;2022-11-14T06:56:28;98670.31;;;8.70;100.00
27202;BME280;14717;46.924;15.474;2022-11-14T06:58:53;98687.13;;;8.74;100.00
27202;BME280;14717;46.924;15.474;2022-11-14T07:01:23;98689.31;;;8.72;100.00
27202;BME280;14717;46.924;15.474;2022-11-14T07:03:50;98677.78;;;8.75;100.00
27202;BME280;14717;46.924;15.474;2022-11-14T07:06:21;98686.56;;;8.72;100.00
27202;BME280;14717;46.924;15.474;2022-11-14T07:08:47;98698.66;;;8.71;100.00
27202;BME280;14717;46.924;15.474;2022-11-14T07:11:15;98692.94;;;8.77;100.00
27202;BME280;14717;46.924;15.474;2022-11-14T07:13:54;98678.41;;;8.82;100.00
27202;BME280;14717;46.924;15.474;2022-11-14T07:16:34;98667.38;;;8.82;100.00
27202;BME280;14717;46.924;15.474;2022-11-14T07:19:01;98676.50;;;8.87;100.00
27202;BME280;14717;46.924;15.474;2022-11-14T07:21:28;98682.88;;;8.88;100.00
27202;BME280;14717;46.924;15.474;2022-11-14T07:23:55;98677.63;;;8.86;100.00
27202;BME280;14717;46.924;15.474;2022-11-14T07:26:21;98680.38;;;8.86;100.00
27202;BME280;14717;46.924;15.474;2022-11-14T07:28:47;98660.31;;;8.91;100.00
27202;BME280;14717;46.924;15.474;2022-11-14T07:31:17;98669.44;;;8.96;100.00
27202;BME280;14717;46.924;15.474;2022-11-14T07:33:43;98659.81;;;8.98;100.00
27202;BME280;14717;46.924;15.474;2022-11-14T07:36:09;98670.88;;;9.03;100.00
27202;BME280;14717;46.924;15.474;2022-11-14T07:38:36;98659.63;;;9.10;99.47
27202;BME280;14717;46.924;15.474;2022-11-14T07:41:04;98662.72;;;9.18;99.84
27202;BME280;14717;46.924;15.474;2022-11-14T07:43:30;98663.88;;;9.22;100.00
27202;BME280;14717;46.924;15.474;2022-11-14T07:46:00;98668.00;;;9.25;100.00
27202;BME280;14717;46.924;15.474;2022-11-14T07:48:27;98669.09;;;9.19;99.89
27202;BME280;14717;46.924;15.474;2022-11-14T07:50:52;98661.16;;;9.27;99.55
27202;BME280;14717;46.924;15.474;2022-11-14T07:53:18;98657.28;;;9.28;99.30
27202;BME280;14717;46.924;15.474;2022-11-14T07:55:43;98648.75;;;9.30;98.86
27202;BME280;14717;46.924;15.474;2022-11-14T07:58:08;98660.66;;;9.35;98.46
27202;BME280;14717;46.924;15.474;2022-11-14T08:00:34;98655.41;;;9.33;97.67
27202;BME280;14717;46.924;15.474;2022-11-14T08:02:59;98659.28;;;9.37;97.07
27202;BME280;14717;46.924;15.474;2022-11-14T08:05:25;98653.78;;;9.42;97.33
27202;BME280;14717;46.924;15.474;2022-11-14T08:07:51;98657.13;;;9.44;97.17
27202;BME280;14717;46.924;15.474;2022-11-14T08:10:16;98661.31;;;9.52;97.27
27202;BME280;14717;46.924;15.474;2022-11-14T08:12:43;98658.03;;;9.55;96.41
27202;BME280;14717;46.924;15.474;2022-11-14T08:15:10;98655.28;;;9.60;96.07
27202;BME280;14717;46.924;15.474;2022-11-14T08:17:37;98642.88;;;9.62;94.68
27202;BME280;14717;46.924;15.474;2022-11-14T08:20:03;98630.56;;;9.75;95.13
27202;BME280;14717;46.924;15.474;2022-11-14T08:22:29;98634.72;;;9.82;94.61
27202;BME280;14717;46.924;15.474;2022-11-14T08:24:55;98633.38;;;9.89;94.11
27202;BME280;14717;46.924;15.474;2022-11-14T08:27:20;98632.19;;;9.75;94.08
27202;BME280;14717;46.924;15.474;2022-11-14T08:29:45;98646.53;;;9.77;94.59
27202;BME280;14717;46.924;15.474;2022-11-14T08:32:11;98640.53;;;9.90;94.96
27202;BME280;14717;46.924;15.474;2022-11-14T08:34:36;98644.97;;;9.91;94.81
27202;BME280;14717;46.924;15.474;2022-11-14T08:37:02;98637.84;;;10.00;95.26
27202;BME280;14717;46.924;15.474;2022-11-14T08:39:28;98645.06;;;10.06;94.34
27202;BME280;14717;46.924;15.474;2022-11-14T08:41:53;98642.59;;;10.15;93.82
27202;BME280;14717;46.924;15.474;2022-11-14T08:44:19;98631.88;;;10.28;93.05
27202;BME280;14717;46.924;15.474;2022-11-14T08:46:44;98640.44;;;10.31;92.01
27202;BME280;14717;46.924;15.474;2022-11-14T08:49:09;98639.38;;;10.47;91.82
27202;BME280;14717;46.924;15.474;2022-11-14T08:51:35;98640.72;;;10.35;92.15
27202;BME280;14717;46.924;15.474;2022-11-14T08:54:01;98640.19;;;10.38;91.14
27202;BME280;14717;46.924;15.474;2022-11-14T08:56:26;98639.63;;;10.31;91.02
27202;BME280;14717;46.924;15.474;2022-11-14T08:58:52;98643.75;;;10.38;93.08
27202;BME280;14717;46.924;15.474;2022-11-14T09:01:17;98644.09;;;10.52;91.26
27202;BME280;14717;46.924;15.474;2022-11-14T09:03:42;98636.13;;;10.70;90.62
27202;BME280;14717;46.924;15.474;2022-11-14T09:06:08;98639.97;;;10.89;89.31
27202;BME280;14717;46.924;15.474;2022-11-14T09:08:33;98633.63;;;10.88;88.16
27202;BME280;14717;46.924;15.474;2022-11-14T09:11:02;98629.72;;;11.19;89.33
27202;BME280;14717;46.924;15.474;2022-11-14T09:13:31;98631.69;;;11.18;88.77
27202;BME280;14717;46.924;15.474;2022-11-14T09:15:57;98629.75;;;11.04;87.50
27202;BME280;14717;46.924;15.474;2022-11-14T09:18:22;98632.22;;;11.10;87.76
27202;BME280;14717;46.924;15.474;2022-11-14T09:20:47;98628.66;;;11.15;86.40
27202;BME280;14717;46.924;15.474;2022-11-14T09:23:13;98631.41;;;10.90;87.84
27202;BME280;14717;46.924;15.474;2022-11-14T09:25:38;98623.94;;;10.71;87.31
27202;BME280;14717;46.924;15.474;2022-11-14T09:28:07;98616.50;;;10.81;88.40
27202;BME280;14717;46.924;15.474;2022-11-14T09:30:34;98618.69;;;10.99;87.93
27202;BME280;14717;46.924;15.474;2022-11-14T09:33:03;98604.03;;;11.03;87.23
27202;BME280;14717;46.924;15.474;2022-11-14T09:35:29;98599.63;;;11.03;86.03
27202;BME280;14717;46.924;15.474;2022-11-14T09:38:03;98601.56;;;11.02;86.90
27202;BME280;14717;46.924;15.474;2022-11-14T09:40:30;98597.69;;;10.83;86.39
27202;BME280;14717;46.924;15.474;2022-11-14T09:43:17;98603.22;;;10.93;87.72
27202;BME280;14717;46.924;15.474;2022-11-14T09:45:49;98596.03;;;10.72;87.58
27202;BME280;14717;46.924;15.474;2022-11-14T09:48:19;98594.66;;;10.65;88.48
27202;BME280;14717;46.924;15.474;2022-11-14T09:51:00;98594.38;;;10.71;88.90
27202;BME280;14717;46.924;15.474;2022-11-14T09:53:33;98588.00;;;10.81;90.07
27202;BME280;14717;46.924;15.474;2022-11-14T09:56:01;98579.41;;;11.12;86.82
27202;BME280;14717;46.924;15.474;2022-11-14T09:58:26;98581.56;;;11.45;85.68
27202;BME280;14717;46.924;15.474;2022-11-14T10:01:05;98574.59;;;11.72;84.65
27202;BME280;14717;46.924;15.474;2022-11-14T10:11:34;98578.28;;;11.48;87.69
27202;BME280;14717;46.924;15.474;2022-11-14T10:19:07;98580.28;;;12.05;84.34
27202;BME280;14717;46.924;15.474;2022-11-14T10:27:00;98563.69;;;12.81;77.17
27202;BME280;14717;46.924;15.474;2022-11-14T10:35:18;98562.59;;;12.77;75.92
27202;BME280;14717;46.924;15.474;2022-11-14T10:38:08;98559.88;;;12.72;78.17
27202;BME280;14717;46.924;15.474;2022-11-14T10:40:47;98546.81;;;12.73;80.47
27202;BME280;14717;46.924;15.474;2022-11-14T10:43:37;98536.88;;;13.05;78.16
27202;BME280;14717;46.924;15.474;2022-11-14T10:48:50;98531.19;;;13.43;75.89
27202;BME280;14717;46.924;15.474;2022-11-14T10:51:23;98530.41;;;13.37;74.32
27202;BME280;14717;46.924;15.474;2022-11-14T10:54:05;98533.81;;;13.01;75.03
27202;BME280;14717;46.924;15.474;2022-11-14T10:56:55;98530.13;;;13.11;77.08
27202;BME280;14717;46.924;15.474;2022-11-14T10:59:21;98519.31;;;12.48;77.22
27202;BME280;14717;46.924;15.474;2022-11-14T11:04:30;98521.91;;;12.68;78.86
27202;BME280;14717;46.924;15.474;2022-11-14T11:09:38;98506.28;;;12.81;77.36
27202;BME280;14717;46.924;15.474;2022-11-14T11:25:37;98484.63;;;13.12;77.11
27202;BME280;14717;46.924;15.474;2022-11-14T11:30:34;98491.94;;;13.31;75.21
27202;BME280;14717;46.924;15.474;2022-11-14T11:33:25;98478.41;;;12.96;76.66
27202;BME280;14717;46.924;15.474;2022-11-14T11:35:55;98477.59;;;12.96;77.31
27202;BME280;14717;46.924;15.474;2022-11-14T11:38:24;98473.84;;;13.33;75.80
27202;BME280;14717;46.924;15.474;2022-11-14T11:41:37;98456.94;;;13.07;75.85
27202;BME280;14717;46.924;15.474;2022-11-14T11:43:49;98453.06;;;13.31;76.48
27202;BME280;14717;46.924;15.474;2022-11-14T11:49:18;98452.94;;;13.82;74.70
27202;BME280;14717;46.924;15.474;2022-11-14T11:51:45;98451.69;;;13.70;72.61
27202;BME280;14717;46.924;15.474;2022-11-14T11:54:30;98455.56;;;13.74;73.41
27202;BME280;14717;46.924;15.474;2022-11-14T11:57:08;98452.91;;;13.64;74.96
27202;BME280;14717;46.924;15.474;2022-11-14T11:59:41;98447.22;;;13.74;74.49
27202;BME280;14717;46.924;15.474;2022-11-14T12:02:22;98441.81;;;13.64;75.42
27202;BME280;14717;46.924;15.474;2022-11-14T12:04:50;98440.00;;;13.31;75.55
27202;BME280;14717;46.924;15.474;2022-11-14T12:07:18;98433.50;;;13.41;75.74
27202;BME280;14717;46.924;15.474;2022-11-14T12:09:45;98433.72;;;13.86;74.21
27202;BME280;14717;46.924;15.474;2022-11-14T12:13:02;98427.81;;;14.10;73.06
27202;BME280;14717;46.924;15.474;2022-11-14T12:24:07;98418.22;;;13.80;74.23
27202;BME280;14717;46.924;15.474;2022-11-14T12:29:20;98415.91;;;13.87;73.34
27202;BME280;14717;46.924;15.474;2022-11-14T12:31:53;98414.94;;;13.96;74.07
27202;BME280;14717;46.924;15.474;2022-11-14T12:34:23;98412.88;;;14.06;73.28
27202;BME280;14717;46.924;15.474;2022-11-14T12:36:50;98404.13;;;14.13;74.20
27202;BME280;14717;46.924;15.474;2022-11-14T12:39:29;98405.06;;;14.08;73.89
27202;BME280;14717;46.924;15.474;2022-11-14T12:42:03;98405.19;;;13.99;74.29
27202;BME280;14717;46.924;15.474;2022-11-14T12:58:10;98388.19;;;14.05;75.18
27202;BME280;14717;46.924;15.474;2022-11-14T13:01:04;98389.81;;;14.06;75.18
27202;BME280;14717;46.924;15.474;2022-11-14T13:06:18;98387.22;;;13.91;76.00
27202;BME280;14717;46.924;15.474;2022-11-14T13:14:14;98388.78;;;13.42;79.18
27202;BME280;14717;46.924;15.474;2022-11-14T13:20:21;98381.38;;;13.38;79.69
27202;BME280;14717;46.924;15.474;2022-11-14T13:33:45;98388.78;;;13.42;79.88
27202;BME280;14717;46.924;15.474;2022-11-14T13:36:33;98391.41;;;13.52;79.41
27202;BME280;14717;46.924;15.474;2022-11-14T13:39:21;98376.34;;;13.58;79.26
27202;BME280;14717;46.924;15.474;2022-11-14T13:42:18;98379.06;;;13.63;79.28
27202;BME280;14717;46.924;15.474;2022-11-14T13:45:16;98381.91;;;13.58;78.64
27202;BME280;14717;46.924;15.474;2022-11-14T13:48:19;98376.13;;;13.55;79.23
27202;BME280;14717;46.924;15.474;2022-11-14T13:50:50;98371.97;;;13.52;79.56
27202;BME280;14717;46.924;15.474;2022-11-14T13:53:22;98368.69;;;13.50;79.46
27202;BME280;14717;46.924;15.474;2022-11-14T13:55:59;98360.50;;;13.40;80.35
27202;BME280;14717;46.924;15.474;2022-11-14T14:07:18;98370.84;;;13.17;81.80
27202;BME280;14717;46.924;15.474;2022-11-14T14:09:56;98371.81;;;13.25;81.36
27202;BME280;14717;46.924;15.474;2022-11-14T14:17:55;98364.88;;;12.81;83.81
27202;BME280;14717;46.924;15.474;2022-11-14T14:23:19;98376.00;;;12.48;84.67
27202;BME280;14717;46.924;15.474;2022-11-14T14:28:58;98373.38;;;12.33;85.25
27202;BME280;14717;46.924;15.474;2022-11-14T14:31:45;98374.72;;;12.41;85.63
27202;BME280;14717;46.924;15.474;2022-11-14T14:34:26;98375.53;;;12.41;85.11
27202;BME280;14717;46.924;15.474;2022-11-14T14:36:54;98380.88;;;12.05;85.92
27202;BME280;14717;46.924;15.474;2022-11-14T14:39:25;98382.44;;;11.78;87.69
27202;BME280;14717;46.924;15.474;2022-11-14T14:41:53;98376.19;;;11.62;88.25
27202;BME280;14717;46.924;15.474;2022-11-14T14:44:37;98382.28;;;11.64;89.08
27202;BME280;14717;46.924;15.474;2022-11-14T14:47:29;98374.59;;;11.51;89.07
27202;BME280;14717;46.924;15.474;2022-11-14T14:49:59;98365.75;;;11.45;90.07
27202;BME280;14717;46.924;15.474;2022-11-14T14:52:33;98363.28;;;11.48;89.77
27202;BME280;14717;46.924;15.474;2022-11-14T14:55:00;98371.38;;;11.30;90.53
27202;BME280;14717;46.924;15.474;2022-11-14T14:57:28;98371.44;;;11.20;90.73